createdAt,value
2022-10-09T00:00:36.034Z,77.31
2022-10-09T00:03:03.776Z,77.74
2022-10-09T00:05:31.578Z,78.06
2022-10-09T00:07:59.374Z,77.19
2022-10-09T00:10:28.518Z,76.41
2022-10-09T00:12:56.713Z,75.58
2022-10-09T00:15:24.526Z,74.85
2022-10-09T00:17:52.256Z,74.62
2022-10-09T00:20:20.261Z,74.80
2022-10-09T00:22:48.236Z,74.26
2022-10-09T00:25:16.198Z,73.73
2022-10-09T00:27:45.276Z,73.49
2022-10-09T00:30:13.752Z,72.92
2022-10-09T00:32:41.486Z,72.72
2022-10-09T00:35:09.639Z,72.59
2022-10-09T00:37:37.390Z,72.50
2022-10-09T00:40:05.862Z,73.79
2022-10-09T00:42:33.655Z,74.07
2022-10-09T00:45:03.936Z,74.15
2022-10-09T00:47:34.073Z,75.35
2022-10-09T00:50:05.271Z,75.05
2022-10-09T00:52:33.580Z,74.96
2022-10-09T00:55:02.786Z,75.59
2022-10-09T00:57:32.626Z,75.20
2022-10-09T01:00:06.337Z,74.18
2022-10-09T01:02:34.289Z,74.00
2022-10-09T01:05:02.184Z,73.71
2022-10-09T01:07:37.173Z,74.06
2022-10-09T01:10:11.625Z,74.55
2022-10-09T01:12:45.214Z,73.44
2022-10-09T01:15:18.765Z,73.02
2022-10-09T01:17:52.839Z,74.32
2022-10-09T01:20:30.785Z,75.75
2022-10-09T01:23:18.012Z,76.01
2022-10-09T01:25:55.536Z,76.20
2022-10-09T01:28:28.823Z,76.10
2022-10-09T01:30:58.298Z,76.02
2022-10-09T01:33:26.202Z,76.13
2022-10-09T01:35:54.663Z,75.86
2022-10-09T01:38:24.704Z,75.16
2022-10-09T01:40:53.734Z,74.48
2022-10-09T01:43:21.560Z,73.77
2022-10-09T01:45:50.693Z,72.96
2022-10-09T01:48:21.300Z,73.14
2022-10-09T01:50:52.608Z,73.17
2022-10-09T01:53:21.100Z,73.87
2022-10-09T01:55:52.429Z,75.39
2022-10-09T01:58:22.822Z,75.73
2022-10-09T02:00:56.734Z,76.80
2022-10-09T02:03:24.865Z,77.62
2022-10-09T02:05:53.818Z,77.48
2022-10-09T02:08:23.456Z,76.33
2022-10-09T02:10:53.785Z,75.42
2022-10-09T02:13:21.878Z,75.06
2022-10-09T02:15:54.499Z,75.74
2022-10-09T02:18:27.397Z,75.26
2022-10-09T02:20:58.422Z,75.37
2022-10-09T02:23:26.817Z,75.96
2022-10-09T02:25:54.768Z,75.64
2022-10-09T02:28:23.082Z,75.46
2022-10-09T02:30:56.405Z,75.45
2022-10-09T02:33:28.635Z,75.06
2022-10-09T02:35:56.395Z,74.65
2022-10-09T02:38:24.099Z,76.32
2022-10-09T02:40:52.090Z,75.67
2022-10-09T02:43:19.858Z,75.11
2022-10-09T02:45:47.600Z,74.54
2022-10-09T02:48:16.741Z,75.45
2022-10-09T02:50:44.618Z,76.22
2022-10-09T02:53:12.490Z,76.73
2022-10-09T02:55:40.482Z,77.24
2022-10-09T02:58:08.257Z,77.91
2022-10-09T03:00:36.069Z,76.94
2022-10-09T03:03:03.959Z,76.49
2022-10-09T03:05:33.181Z,76.07
2022-10-09T03:08:01.067Z,77.25
2022-10-09T03:10:28.784Z,76.66
2022-10-09T03:12:56.569Z,74.98
2022-10-09T03:15:24.269Z,74.04
2022-10-09T03:17:52.101Z,74.33
2022-10-09T03:20:19.855Z,75.05
2022-10-09T03:22:49.159Z,75.33
2022-10-09T03:25:17.218Z,75.04
2022-10-09T03:27:45.028Z,75.93
2022-10-09T03:30:13.573Z,75.46
2022-10-09T03:32:41.413Z,74.26
2022-10-09T03:35:09.728Z,73.53
2022-10-09T03:37:37.544Z,73.94
2022-10-09T03:40:07.540Z,74.75
2022-10-09T03:42:35.286Z,75.35
2022-10-09T03:45:04.655Z,75.44
2022-10-09T03:47:32.621Z,75.29
2022-10-09T03:50:00.352Z,75.02
2022-10-09T03:52:28.102Z,75.01
2022-10-09T03:54:55.957Z,76.14
2022-10-09T03:57:25.116Z,77.25
2022-10-09T03:59:52.869Z,77.27
2022-10-09T04:02:20.673Z,76.24
2022-10-09T04:04:48.430Z,75.63
2022-10-09T04:07:16.182Z,75.75
2022-10-09T04:09:43.920Z,76.28
2022-10-09T04:12:11.638Z,76.01
2022-10-09T04:14:40.745Z,75.77
2022-10-09T04:17:08.672Z,74.81
2022-10-09T04:19:37.106Z,74.96
2022-10-09T04:22:05.218Z,74.58
2022-10-09T04:24:32.982Z,74.25
2022-10-09T04:27:00.797Z,74.20
2022-10-09T04:29:28.535Z,74.74
2022-10-09T04:31:57.686Z,75.03
2022-10-09T04:34:25.492Z,75.88
2022-10-09T04:36:53.257Z,76.27
2022-10-09T04:39:21.037Z,76.53
2022-10-09T04:41:48.776Z,76.86
2022-10-09T04:44:16.762Z,76.64
2022-10-09T04:46:44.553Z,76.26
2022-10-09T04:49:14.801Z,76.63
2022-10-09T04:51:42.641Z,76.21
2022-10-09T04:54:10.708Z,75.66
2022-10-09T04:56:38.755Z,76.07
2022-10-09T04:59:06.546Z,75.12
2022-10-09T05:01:38.109Z,74.58
2022-10-09T05:04:06.407Z,75.08
2022-10-09T05:06:35.475Z,75.25
2022-10-09T05:09:03.247Z,75.51
2022-10-09T05:11:30.959Z,74.72
2022-10-09T05:13:59.337Z,74.04
2022-10-09T05:16:28.570Z,74.92
2022-10-09T05:18:58.650Z,74.95
2022-10-09T05:21:27.478Z,74.49
2022-10-09T05:23:56.948Z,74.76
2022-10-09T05:26:27.866Z,74.61
2022-10-09T05:28:55.671Z,74.37
2022-10-09T05:31:26.231Z,73.96
2022-10-09T05:33:54.355Z,73.55
2022-10-09T05:36:22.146Z,73.07
2022-10-09T05:38:49.873Z,73.94
2022-10-09T05:41:19.785Z,74.74
2022-10-09T05:43:48.877Z,74.14
2022-10-09T05:46:18.849Z,74.90
2022-10-09T05:48:51.803Z,75.17
2022-10-09T05:51:20.897Z,74.85
2022-10-09T05:53:49.204Z,74.75
2022-10-09T05:56:19.912Z,75.15
2022-10-09T05:58:51.574Z,75.93
2022-10-09T06:01:19.716Z,76.42
2022-10-09T06:03:50.513Z,76.36
2022-10-09T06:06:19.215Z,75.96
2022-10-09T06:08:47.064Z,75.84
2022-10-09T06:11:16.468Z,75.89
2022-10-09T06:13:46.097Z,75.78
2022-10-09T06:16:15.121Z,75.78
2022-10-09T06:18:48.810Z,75.93
2022-10-09T06:21:17.839Z,75.79
2022-10-09T06:23:45.604Z,75.52
2022-10-09T06:26:14.288Z,75.51
2022-10-09T06:28:42.249Z,75.38
2022-10-09T06:31:13.360Z,75.15
2022-10-09T06:33:42.490Z,75.37
2022-10-09T06:36:11.746Z,76.59
2022-10-09T06:38:40.125Z,76.35
2022-10-09T06:41:09.593Z,75.74
2022-10-09T06:43:37.610Z,75.45
2022-10-09T06:46:06.997Z,74.27
2022-10-09T06:48:37.385Z,74.04
2022-10-09T06:51:06.583Z,73.88
2022-10-09T06:53:36.304Z,73.74
2022-10-09T06:56:04.505Z,73.75
2022-10-09T06:58:32.711Z,73.74
2022-10-09T07:01:05.201Z,73.22
2022-10-09T07:03:33.094Z,73.08
2022-10-09T07:06:10.316Z,72.95
2022-10-09T07:08:38.298Z,72.68
2022-10-09T07:11:10.429Z,72.27
2022-10-09T07:13:38.608Z,71.99
2022-10-09T07:16:07.009Z,71.58
2022-10-09T07:18:35.616Z,71.49
2022-10-09T07:21:03.870Z,71.34
2022-10-09T07:23:34.031Z,71.20
2022-10-09T07:26:02.669Z,69.87
2022-10-09T07:28:31.203Z,69.81
2022-10-09T07:30:59.106Z,69.15
2022-10-09T07:33:26.966Z,68.99
2022-10-09T07:35:55.489Z,68.17
2022-10-09T07:38:24.391Z,67.21
2022-10-09T07:40:53.816Z,66.04
2022-10-09T07:43:22.535Z,66.22
2022-10-09T07:45:50.262Z,65.38
2022-10-09T07:48:18.046Z,64.84
2022-10-09T07:50:45.791Z,64.76
2022-10-09T07:53:13.503Z,64.19
2022-10-09T07:55:46.335Z,63.83
2022-10-09T07:58:15.653Z,63.20
2022-10-09T08:00:43.536Z,62.30
2022-10-09T08:03:11.598Z,62.02
2022-10-09T08:05:39.385Z,61.25
2022-10-09T08:08:07.137Z,60.25
2022-10-09T08:10:35.206Z,59.72
2022-10-09T08:13:02.998Z,60.19
2022-10-09T08:15:32.174Z,59.97
2022-10-09T08:17:59.981Z,59.19
2022-10-09T08:20:27.705Z,59.15
2022-10-09T08:22:55.474Z,58.28
2022-10-09T08:25:23.221Z,57.70
2022-10-09T08:27:53.238Z,57.86
2022-10-09T08:30:21.054Z,57.16
2022-10-09T08:32:50.886Z,56.80
2022-10-09T08:35:19.093Z,56.26
2022-10-09T08:37:46.873Z,56.43
2022-10-09T08:40:17.512Z,55.67
2022-10-09T08:42:49.545Z,55.10
2022-10-09T08:45:19.851Z,55.49
2022-10-09T08:47:50.923Z,54.46
2022-10-09T08:50:23.109Z,54.78
2022-10-09T08:52:54.171Z,55.54
2022-10-09T08:55:25.124Z,55.20
2022-10-09T08:57:54.609Z,55.91
2022-10-09T09:00:24.114Z,55.36
2022-10-09T09:03:08.860Z,55.18
2022-10-09T09:05:41.994Z,54.40
2022-10-09T09:08:18.924Z,54.72
2022-10-09T09:10:52.877Z,54.75
2022-10-09T09:13:36.124Z,53.81
2022-10-09T09:16:10.971Z,54.42
2022-10-09T09:18:45.039Z,54.36
2022-10-09T09:21:18.515Z,53.50
2022-10-09T09:23:48.384Z,53.08
2022-10-09T09:26:18.711Z,53.04
2022-10-09T09:28:47.634Z,53.39
2022-10-09T09:31:18.791Z,52.38
2022-10-09T09:33:54.607Z,52.78
2022-10-09T09:36:25.474Z,52.70
2022-10-09T09:39:36.214Z,52.88
2022-10-09T09:41:43.045Z,52.50
2022-10-09T09:44:12.128Z,52.65
2022-10-09T09:46:40.684Z,51.78
2022-10-09T09:49:18.170Z,52.20
2022-10-09T09:51:46.091Z,51.86
2022-10-09T09:54:18.942Z,52.08
2022-10-09T09:59:38.907Z,51.65
2022-10-09T10:02:13.514Z,51.84
2022-10-09T10:04:52.071Z,49.89
2022-10-09T10:07:30.577Z,50.10
2022-10-09T10:10:06.974Z,47.62
2022-10-09T10:12:35.019Z,48.78
2022-10-09T10:15:02.958Z,47.84
2022-10-09T10:17:38.674Z,46.54
2022-10-09T10:20:08.417Z,45.92
2022-10-09T10:22:36.904Z,46.50
2022-10-09T10:25:05.189Z,46.29
2022-10-09T10:27:36.590Z,46.46
2022-10-09T10:30:07.942Z,45.92
2022-10-09T10:32:37.433Z,45.32
2022-10-09T10:35:10.998Z,43.97
2022-10-09T10:37:42.354Z,43.29
2022-10-09T10:40:16.407Z,42.81
2022-10-09T10:42:48.766Z,42.92
2022-10-09T10:45:19.289Z,42.13
2022-10-09T10:47:51.364Z,41.57
2022-10-09T10:50:22.041Z,40.91
2022-10-09T10:53:01.383Z,39.02
2022-10-09T10:55:36.341Z,37.51
2022-10-09T10:58:15.466Z,36.80
2022-10-09T11:00:49.409Z,38.50
2022-10-09T11:03:29.792Z,38.48
2022-10-09T11:06:06.589Z,38.77
2022-10-09T11:08:50.795Z,39.52
2022-10-09T11:11:22.994Z,39.26
2022-10-09T11:13:57.169Z,38.39
2022-10-09T11:16:34.788Z,39.10
2022-10-09T11:19:13.773Z,40.00
2022-10-09T11:21:54.178Z,39.93
2022-10-09T11:24:41.824Z,39.33
2022-10-09T11:27:12.937Z,39.32
2022-10-09T11:29:43.186Z,39.47
2022-10-09T11:32:14.832Z,39.67
2022-10-09T11:34:46.087Z,39.57
2022-10-09T11:37:18.339Z,38.99
2022-10-09T11:39:46.437Z,38.75
2022-10-09T11:42:17.988Z,37.71
2022-10-09T11:44:51.249Z,38.96
2022-10-09T11:47:23.189Z,37.87
2022-10-09T11:50:01.358Z,37.29
2022-10-09T11:52:40.403Z,36.90
2022-10-09T11:55:16.270Z,36.98
2022-10-09T11:57:44.057Z,36.62
2022-10-09T12:00:12.859Z,36.78
2022-10-09T12:02:41.842Z,34.75
2022-10-09T12:05:21.305Z,32.65
2022-10-09T12:07:50.572Z,33.94
2022-10-09T12:10:33.520Z,34.76
2022-10-09T12:13:04.454Z,35.13
2022-10-09T12:15:40.077Z,35.07
2022-10-09T12:18:17.344Z,34.68
2022-10-09T12:20:48.797Z,35.30
2022-10-09T12:23:28.130Z,36.22
2022-10-09T12:25:56.668Z,35.75
2022-10-09T12:28:29.409Z,36.33
2022-10-09T12:30:59.438Z,37.15
2022-10-09T12:33:31.244Z,36.62
2022-10-09T12:36:02.271Z,36.36
2022-10-09T12:38:32.682Z,36.32
2022-10-09T12:41:02.386Z,36.40
2022-10-09T12:43:32.322Z,36.56
2022-10-09T12:46:01.185Z,36.23
2022-10-09T12:48:30.280Z,36.99
2022-10-09T12:50:58.078Z,36.66
2022-10-09T12:53:27.381Z,36.38
2022-10-09T12:55:59.229Z,35.84
2022-10-09T12:58:28.462Z,36.10
2022-10-09T13:00:58.676Z,36.00
2022-10-09T13:03:34.201Z,35.67
2022-10-09T13:06:02.651Z,35.81
2022-10-09T13:08:32.352Z,36.16
2022-10-09T13:11:11.076Z,35.83
2022-10-09T13:13:39.401Z,36.42
2022-10-09T13:16:10.566Z,35.72
2022-10-09T13:18:39.042Z,35.24
2022-10-09T13:21:24.638Z,32.06
2022-10-09T13:23:52.407Z,30.96
2022-10-09T13:26:24.957Z,31.10
2022-10-09T13:28:53.006Z,32.48
2022-10-09T13:31:20.911Z,33.63
2022-10-09T13:33:49.394Z,34.84
2022-10-09T13:36:18.237Z,31.95
2022-10-09T13:38:46.905Z,32.18
2022-10-09T13:41:16.035Z,33.59
2022-10-09T13:43:45.195Z,33.97
2022-10-09T13:46:12.993Z,33.40
2022-10-09T13:48:41.077Z,34.08
2022-10-09T13:51:08.934Z,33.54
2022-10-09T13:53:36.651Z,33.47
2022-10-09T13:56:04.468Z,33.50
2022-10-09T13:58:32.250Z,33.75
2022-10-09T14:01:01.710Z,33.85
2022-10-09T14:03:29.456Z,33.56
2022-10-09T14:06:01.155Z,32.39
2022-10-09T14:08:28.941Z,29.97
2022-10-09T14:10:57.094Z,27.92
2022-10-09T14:13:24.867Z,26.74
2022-10-09T14:15:53.125Z,27.63
2022-10-09T14:18:22.499Z,28.89
2022-10-09T14:20:50.417Z,28.29
2022-10-09T14:23:18.185Z,26.94
2022-10-09T14:25:46.240Z,21.76
2022-10-09T14:28:14.060Z,23.13
2022-10-09T14:30:41.923Z,26.40
2022-10-09T14:33:09.970Z,28.33
2022-10-09T14:35:39.572Z,29.48
2022-10-09T14:38:07.286Z,31.70
2022-10-09T14:40:37.679Z,33.73
2022-10-09T14:43:05.442Z,34.06
2022-10-09T14:45:33.874Z,34.58
2022-10-09T14:48:01.623Z,34.57
2022-10-09T14:50:29.426Z,34.74
2022-10-09T14:52:58.509Z,34.89
2022-10-09T14:55:26.566Z,34.83
2022-10-09T14:57:54.315Z,34.77
2022-10-09T15:00:22.110Z,34.96
2022-10-09T15:02:49.866Z,34.71
2022-10-09T15:05:17.786Z,34.53
2022-10-09T15:07:45.585Z,35.14
2022-10-09T15:10:14.777Z,35.00
2022-10-09T15:12:42.578Z,34.81
2022-10-09T15:15:10.993Z,34.58
2022-10-09T15:17:38.815Z,34.99
2022-10-09T15:20:07.375Z,35.53
2022-10-09T15:22:35.237Z,35.80
2022-10-09T15:25:03.018Z,35.46
2022-10-09T15:27:32.148Z,36.07
2022-10-09T15:29:59.856Z,36.18
2022-10-09T15:32:27.593Z,35.91
2022-10-09T15:34:55.383Z,36.09
2022-10-09T15:37:23.103Z,35.83
2022-10-09T15:39:50.986Z,36.03
2022-10-09T15:42:18.763Z,35.40
2022-10-09T15:44:47.890Z,35.70
2022-10-09T15:47:16.662Z,35.55
2022-10-09T15:49:44.894Z,35.27
2022-10-09T15:52:12.619Z,35.22
2022-10-09T15:54:40.348Z,36.14
2022-10-09T15:57:08.137Z,36.57
2022-10-09T15:59:38.116Z,36.21
2022-10-09T16:02:07.351Z,36.43
2022-10-09T16:04:35.146Z,36.44
2022-10-09T16:07:03.335Z,36.87
2022-10-09T16:09:33.412Z,37.33
2022-10-09T16:12:01.515Z,37.69
2022-10-09T16:14:30.082Z,37.73
2022-10-09T16:16:58.181Z,38.23
2022-10-09T16:19:27.315Z,37.92
2022-10-09T16:21:55.084Z,38.06
2022-10-09T16:24:22.817Z,38.24
2022-10-09T16:26:51.042Z,39.28
2022-10-09T16:29:18.830Z,39.48
2022-10-09T16:31:46.573Z,39.21
2022-10-09T16:34:14.356Z,39.46
2022-10-09T16:36:43.761Z,40.84
2022-10-09T16:39:11.521Z,40.64
2022-10-09T16:41:41.934Z,42.03
2022-10-09T16:44:13.642Z,42.43
2022-10-09T16:46:41.446Z,43.07
2022-10-09T16:49:14.703Z,43.29
2022-10-09T16:51:43.954Z,43.96
2022-10-09T16:54:11.696Z,44.11
2022-10-09T16:56:40.671Z,44.80
2022-10-09T16:59:10.014Z,45.38
2022-10-09T17:01:42.276Z,45.91
2022-10-09T17:04:10.952Z,45.87
2022-10-09T17:06:40.744Z,46.77
2022-10-09T17:09:13.996Z,46.95
2022-10-09T17:11:42.542Z,47.55
2022-10-09T17:14:10.285Z,48.78
2022-10-09T17:16:39.900Z,49.37
2022-10-09T17:19:07.791Z,50.82
2022-10-09T17:21:35.777Z,51.38
2022-10-09T17:24:04.773Z,51.22
2022-10-09T17:26:34.419Z,52.59
2022-10-09T17:29:03.002Z,52.92
2022-10-09T17:31:31.180Z,53.40
2022-10-09T17:34:01.640Z,54.04
2022-10-09T17:36:34.425Z,54.22
2022-10-09T17:39:02.326Z,54.41
2022-10-09T17:41:30.444Z,54.87
2022-10-09T17:43:59.726Z,55.23
2022-10-09T17:46:29.219Z,55.75
2022-10-09T17:48:58.299Z,56.36
2022-10-09T17:51:27.628Z,56.45
2022-10-09T17:56:26.183Z,56.45
2022-10-09T17:58:55.802Z,56.57
2022-10-09T18:01:25.026Z,56.25
2022-10-09T18:03:53.877Z,56.58
2022-10-09T18:06:23.806Z,56.87
2022-10-09T18:08:53.024Z,58.04
2022-10-09T18:11:21.919Z,58.93
2022-10-09T18:13:49.988Z,58.71
2022-10-09T18:16:20.457Z,58.77
2022-10-09T18:18:49.738Z,59.89
2022-10-09T18:21:18.116Z,60.14
2022-10-09T18:23:46.629Z,60.24
2022-10-09T18:26:16.611Z,60.76
2022-10-09T18:28:48.170Z,61.29
2022-10-09T18:31:19.199Z,61.62
2022-10-09T18:33:47.403Z,61.69
2022-10-09T18:36:19.591Z,62.58
2022-10-09T18:38:48.711Z,62.75
2022-10-09T18:41:17.177Z,62.92
2022-10-09T18:43:44.969Z,63.40
2022-10-09T18:46:12.706Z,64.35
2022-10-09T18:48:42.000Z,64.76
2022-10-09T18:51:14.498Z,65.14
2022-10-09T18:53:45.592Z,65.11
2022-10-09T18:56:13.845Z,65.10
2022-10-09T18:58:42.065Z,65.56
2022-10-09T19:01:10.124Z,65.46
2022-10-09T19:03:37.910Z,65.27
2022-10-09T19:06:06.305Z,66.36
2022-10-09T19:08:35.066Z,65.78
2022-10-09T19:11:07.159Z,65.93
2022-10-09T19:13:34.973Z,66.23
2022-10-09T19:16:04.598Z,66.50
2022-10-09T19:18:32.908Z,67.93
2022-10-09T19:21:00.649Z,67.90
2022-10-09T19:23:28.533Z,67.54
2022-10-09T19:25:58.335Z,67.50
2022-10-09T19:28:30.645Z,67.95
2022-10-09T19:30:58.508Z,67.94
2022-10-09T19:33:26.347Z,67.80
2022-10-09T19:35:55.594Z,67.46
2022-10-09T19:38:24.200Z,68.14
2022-10-09T19:40:52.236Z,68.81
2022-10-09T19:43:21.061Z,68.31
2022-10-09T19:45:50.767Z,68.71
2022-10-09T19:48:20.356Z,69.41
2022-10-09T19:50:48.217Z,69.11
2022-10-09T19:53:16.045Z,70.00
2022-10-09T19:55:43.915Z,70.07
2022-10-09T19:58:11.769Z,70.08
2022-10-09T20:00:42.487Z,69.96
2022-10-09T20:03:11.687Z,69.86
2022-10-09T20:05:39.623Z,70.31
2022-10-09T20:08:07.690Z,70.55
2022-10-09T20:10:36.848Z,70.84
2022-10-09T20:13:04.731Z,70.63
2022-10-09T20:15:32.881Z,70.17
2022-10-09T20:18:00.619Z,71.33
2022-10-09T20:20:29.717Z,71.03
2022-10-09T20:22:57.503Z,71.43
2022-10-09T20:25:26.928Z,72.17
2022-10-09T20:27:54.677Z,71.90
2022-10-09T20:30:22.437Z,72.27
2022-10-09T20:32:53.067Z,71.72
2022-10-09T20:35:23.524Z,72.54
2022-10-09T20:37:52.734Z,72.51
2022-10-09T20:40:20.518Z,72.41
2022-10-09T20:42:48.820Z,71.64
2022-10-09T20:45:16.934Z,71.60
2022-10-09T20:47:44.744Z,72.53
2022-10-09T20:50:12.651Z,73.25
2022-10-09T20:52:40.374Z,73.16
2022-10-09T20:55:09.952Z,73.03
2022-10-09T20:57:37.661Z,73.59
2022-10-09T21:00:07.426Z,73.88
2022-10-09T21:02:35.358Z,74.08
2022-10-09T21:05:03.300Z,73.65
2022-10-09T21:07:32.630Z,73.75
2022-10-09T21:10:00.356Z,73.94
2022-10-09T21:12:29.513Z,74.01
2022-10-09T21:14:57.323Z,74.41
2022-10-09T21:17:25.218Z,74.82
2022-10-09T21:19:52.994Z,74.81
2022-10-09T21:22:20.743Z,74.54
2022-10-09T21:24:48.673Z,73.51
2022-10-09T21:27:16.437Z,73.36
2022-10-09T21:29:45.570Z,73.40
2022-10-09T21:32:13.375Z,72.77
2022-10-09T21:34:41.125Z,72.20
2022-10-09T21:37:27.577Z,71.95
2022-10-09T21:39:55.455Z,72.33
2022-10-09T21:42:23.323Z,72.42
2022-10-09T21:44:52.500Z,72.10
2022-10-09T21:47:20.413Z,72.41
2022-10-09T21:49:48.649Z,72.35
2022-10-09T21:52:16.457Z,73.02
2022-10-09T21:54:44.320Z,73.28
2022-10-09T21:57:12.163Z,72.87
2022-10-09T21:59:39.970Z,72.07
2022-10-09T22:02:09.256Z,72.06
2022-10-09T22:04:37.243Z,72.69
2022-10-09T22:07:05.126Z,73.82
2022-10-09T22:09:33.120Z,74.35
2022-10-09T22:12:01.255Z,74.89
2022-10-09T22:14:29.197Z,75.70
2022-10-09T22:16:57.136Z,76.33
2022-10-09T22:19:26.276Z,76.01
2022-10-09T22:21:54.231Z,75.76
2022-10-09T22:24:25.850Z,76.29
2022-10-09T22:26:57.361Z,76.12
2022-10-09T22:29:25.594Z,76.71
2022-10-09T22:31:53.577Z,76.90
2022-10-09T22:34:21.653Z,77.06
2022-10-09T22:36:51.012Z,77.12
2022-10-09T22:39:18.871Z,76.87
2022-10-09T22:41:46.692Z,76.96
2022-10-09T22:44:14.570Z,76.89
2022-10-09T22:46:43.971Z,76.55
2022-10-09T22:49:13.457Z,76.29
2022-10-09T22:51:41.541Z,76.03
2022-10-09T22:54:11.978Z,75.72
2022-10-09T22:56:41.608Z,75.29
2022-10-09T22:59:10.287Z,75.51
2022-10-09T23:01:41.187Z,75.80
2022-10-09T23:04:10.861Z,76.28
2022-10-09T23:06:39.375Z,77.35
2022-10-09T23:09:08.890Z,76.35
2022-10-09T23:11:38.129Z,76.57
2022-10-09T23:14:06.472Z,76.22
2022-10-09T23:16:34.851Z,76.37
2022-10-09T23:19:06.812Z,76.41
2022-10-09T23:21:36.075Z,76.68
2022-10-09T23:24:04.482Z,77.23
2022-10-09T23:26:33.570Z,77.90
2022-10-09T23:29:05.293Z,77.12
2022-10-09T23:31:33.516Z,76.99
2022-10-09T23:34:01.546Z,76.84
2022-10-09T23:36:30.444Z,77.50
2022-10-09T23:38:59.192Z,77.38
2022-10-09T23:41:28.831Z,77.70
2022-10-09T23:43:56.818Z,77.55
2022-10-09T23:46:28.194Z,76.81
2022-10-09T23:48:56.345Z,76.81
2022-10-09T23:51:25.764Z,76.40
2022-10-09T23:53:53.908Z,75.71
2022-10-09T23:56:24.578Z,75.91
2022-10-09T23:58:52.964Z,75.33
